Time;durP1;ratioP1;P1;durP2;ratioP2;P2;SDS_P1;SDS_P2;PMS_P1;PMS_P2;Temp;Humidity;BMP_temperature;BMP_pressure;BME280_temperature;BME280_humidity;BME280_pressure;Samples;Min_cycle;Max_cycle;Signal;HPM_P1;HPM_P2
2021/12/14 00:01:41;;;;;;;24.20;12.73;;;;;;;0.13;100.00;101594.03;5098823;28;20043;-72
2021/12/14 00:04:32;;;;;;;25.30;13.75;;;;;;;0.11;100.00;101584.63;5109254;28;20095;-73
2021/12/14 00:07:03;;;;;;;31.05;15.45;;;;;;;0.11;100.00;101582.84;5110288;28;20044;-74
2021/12/14 00:09:35;;;;;;;31.27;14.50;;;;;;;0.02;100.00;101582.50;5104574;28;20084;-72
2021/12/14 00:15:03;;;;;;;27.38;14.60;;;;;;;0.11;100.00;101590.69;5102379;28;20042;-72
2021/12/14 00:17:33;;;;;;;;;;;;;;;0.04;100.00;101591.91;5107317;28;20080;-75
2021/12/14 00:20:01;;;;;;;24.05;12.73;;;;;;;-0.06;100.00;101585.50;5113715;28;19967;-73
2021/12/14 00:24:57;;;;;;;30.35;15.10;;;;;;;-0.02;100.00;101593.06;5110140;27;20165;-71
2021/12/14 00:27:24;;;;;;;25.73;13.90;;;;;;;-0.02;100.00;101587.03;5110778;27;20032;-71
2021/12/14 00:29:54;;;;;;;28.92;14.43;;;;;;;-0.01;100.00;101596.53;5104605;28;20114;-72
2021/12/14 00:32:25;;;;;;;29.85;15.35;;;;;;;-0.07;100.00;101584.69;5105896;27;20023;-72
2021/12/14 00:34:54;;;;;;;19.15;12.52;;;;;;;-0.06;100.00;101602.00;5115104;27;20466;-72
2021/12/14 00:37:31;;;;;;;27.90;13.43;;;;;;;-0.08;100.00;101610.81;5109683;28;20115;-72
2021/12/14 00:39:58;;;;;;;33.28;15.00;;;;;;;-0.03;100.00;101614.88;5104093;28;20427;-73
2021/12/14 00:42:24;;;;;;;31.35;15.32;;;;;;;-0.05;100.00;101627.16;5102544;27;20031;-73
2021/12/14 00:44:50;;;;;;;33.80;14.27;;;;;;;-0.06;100.00;101611.59;5110235;28;20386;-72
2021/12/14 00:47:16;;;;;;;29.75;13.88;;;;;;;-0.03;100.00;101614.03;5113136;27;20034;-73
2021/12/14 00:49:42;;;;;;;37.53;14.05;;;;;;;-0.08;100.00;101616.88;5108501;28;20467;-72
2021/12/14 00:52:08;;;;;;;25.27;14.30;;;;;;;-0.04;100.00;101617.56;5108754;28;20066;-75
2021/12/14 00:54:35;;;;;;;27.58;15.90;;;;;;;0.00;100.00;101621.72;5102806;27;20042;-73
2021/12/14 00:57:00;;;;;;;34.55;15.70;;;;;;;0.07;100.00;101633.50;5111927;27;20023;-75
2021/12/14 00:59:26;;;;;;;34.00;15.27;;;;;;;0.03;100.00;101625.91;5106815;28;20505;-73
2021/12/14 01:01:57;;;;;;;30.30;14.30;;;;;;;0.00;100.00;101632.16;5102672;27;20475;-73
2021/12/14 01:04:29;;;;;;;28.55;14.68;;;;;;;0.00;100.00;101629.53;5113061;28;20056;-72
2021/12/14 01:06:57;;;;;;;26.85;14.75;;;;;;;-0.01;100.00;101623.47;5116916;28;20020;-72
2021/12/14 01:09:30;;;;;;;33.65;16.40;;;;;;;-0.07;100.00;101625.56;5106987;27;20027;-72
2021/12/14 01:12:05;;;;;;;32.75;14.25;;;;;;;-0.05;100.00;101621.94;5104661;28;20058;-72
2021/12/14 01:14:41;;;;;;;27.27;13.48;;;;;;;-0.09;100.00;101625.63;5104807;28;20077;-72
2021/12/14 01:17:25;;;;;;;26.30;13.75;;;;;;;-0.10;100.00;101613.50;5105348;28;20082;-72
2021/12/14 01:19:56;;;;;;;26.98;14.25;;;;;;;-0.04;100.00;101613.19;5111290;28;20047;-72
2021/12/14 01:22:41;;;;;;;31.58;15.05;;;;;;;0.01;100.00;101612.13;5106337;28;20554;-72
2021/12/14 01:25:13;;;;;;;25.77;13.73;;;;;;;-0.08;100.00;101609.03;5102472;28;20122;-72
2021/12/14 01:27:58;;;;;;;26.92;15.30;;;;;;;-0.15;100.00;101589.41;5103110;28;20441;-73
2021/12/14 01:30:33;;;;;;;30.35;14.60;;;;;;;-0.10;100.00;101612.66;5109907;28;20028;-74
2021/12/14 01:33:02;;;;;;;30.73;15.50;;;;;;;-0.12;100.00;101585.84;5103066;28;20028;-73
2021/12/14 01:35:32;;;;;;;36.95;15.90;;;;;;;-0.07;100.00;101599.47;5108924;28;20435;-73
2021/12/14 01:38:02;;;;;;;38.25;15.57;;;;;;;-0.12;100.00;101591.03;5107002;27;20123;-72
2021/12/14 01:40:53;;;;;;;32.53;14.23;;;;;;;-0.15;100.00;101609.44;5101485;28;20082;-71
2021/12/14 01:43:29;;;;;;;30.58;16.50;;;;;;;-0.14;100.00;101611.16;5107127;28;20076;-72
2021/12/14 01:45:57;;;;;;;32.03;15.73;;;;;;;-0.13;100.00;101602.41;5109065;28;20027;-72
2021/12/14 01:48:23;;;;;;;32.00;14.02;;;;;;;-0.11;100.00;101610.97;5109262;28;20031;-72
2021/12/14 01:50:54;;;;;;;36.53;16.20;;;;;;;-0.21;100.00;101602.81;5098178;28;20158;-72
2021/12/14 01:53:21;;;;;;;24.92;13.75;;;;;;;-0.19;100.00;101585.31;5111288;28;20383;-72
2021/12/14 01:55:53;;;;;;;31.02;14.57;;;;;;;-0.13;100.00;101602.41;5099571;28;20036;-71
2021/12/14 02:01:04;;;;;;;31.75;14.93;;;;;;;-0.56;100.00;101536.84;5884656;22;20043;-71
2021/12/14 02:03:40;;;;;;;30.17;14.38;;;;;;;-0.08;100.00;101600.38;5100235;28;20467;-72
2021/12/14 02:06:06;;;;;;;30.05;15.02;;;;;;;-0.22;100.00;101595.03;5105665;28;20032;-72
2021/12/14 02:08:36;;;;;;;37.47;17.02;;;;;;;-0.12;100.00;101599.72;5106024;28;20020;-71
2021/12/14 02:11:06;;;;;;;32.47;15.77;;;;;;;-0.11;100.00;101613.59;5112527;27;20032;-72
2021/12/14 02:13:37;;;;;;;30.05;15.25;;;;;;;-0.13;100.00;101605.00;5102483;28;20036;-72
2021/12/14 02:16:06;;;;;;;28.75;15.57;;;;;;;-0.14;100.00;101598.13;5107009;28;20034;-73
2021/12/14 02:18:34;;;;;;;28.67;15.30;;;;;;;-0.13;100.00;101611.06;5108448;28;20039;-73
2021/12/14 02:21:05;;;;;;;33.75;15.10;;;;;;;-0.07;100.00;101626.41;5109604;28;20042;-71
2021/12/14 02:23:33;;;;;;;29.50;15.23;;;;;;;-0.08;100.00;101605.59;5104012;27;20513;-72
2021/12/14 02:26:01;;;;;;;35.80;15.38;;;;;;;-0.26;100.00;101596.13;5107299;28;20110;-72
2021/12/14 02:28:27;;;;;;;33.80;15.82;;;;;;;-0.17;100.00;101617.34;5105937;28;20019;-73
2021/12/14 02:30:56;;;;;;;42.83;17.73;;;;;;;-0.30;100.00;101600.66;5106367;28;20024;-73
2021/12/14 02:33:29;;;;;;;29.30;15.32;;;;;;;-0.19;100.00;101615.75;5099391;28;20025;-71
2021/12/14 02:35:55;;;;;;;24.17;14.43;;;;;;;-0.15;100.00;101620.72;5110332;28;20048;-72
2021/12/14 02:38:21;;;;;;;38.40;16.58;;;;;;;-0.15;100.00;101632.91;5108906;28;20040;-71
2021/12/14 02:41:01;;;;;;;40.75;16.98;;;;;;;-0.12;100.00;101632.78;5102367;28;20027;-73
2021/12/14 02:43:39;;;;;;;28.25;15.60;;;;;;;-0.19;100.00;101629.63;5103669;28;20036;-73
2021/12/14 02:46:04;;;;;;;25.60;14.50;;;;;;;-0.23;100.00;101635.91;5110989;27;20543;-73
2021/12/14 02:48:30;;;;;;;31.15;15.82;;;;;;;-0.17;100.00;101632.16;5102640;28;20024;-73
2021/12/14 02:51:09;;;;;;;27.30;14.60;;;;;;;-0.28;100.00;101623.13;5100786;28;20032;-71
2021/12/14 02:53:35;;;;;;;40.20;17.23;;;;;;;-0.20;100.00;101627.94;5096870;28;20521;-73
2021/12/14 02:56:00;;;;;;;39.67;14.93;;;;;;;-0.22;100.00;101634.16;5097452;27;20032;-72
2021/12/14 02:58:26;;;;;;;35.42;16.38;;;;;;;-0.20;100.00;101630.56;5128164;27;20072;-72
2021/12/14 03:00:53;;;;;;;27.52;14.73;;;;;;;-0.21;100.00;101643.69;5125435;27;20101;-73
2021/12/14 03:03:19;;;;;;;27.20;15.05;;;;;;;-0.23;100.00;101635.06;5120369;27;20478;-72
2021/12/14 03:05:49;;;;;;;27.52;15.00;;;;;;;-0.45;100.00;101611.84;5117153;27;20414;-72
2021/12/14 03:08:25;;;;;;;36.90;16.17;;;;;;;-0.19;100.00;101644.44;5121086;27;20173;-72
2021/12/14 03:11:00;;;;;;;35.40;16.92;;;;;;;-0.18;100.00;101633.09;5122567;27;20035;-73
2021/12/14 03:13:34;;;;;;;29.95;13.80;;;;;;;-0.18;100.00;101639.13;5124881;27;20027;-73
2021/12/14 03:16:03;;;;;;;35.45;16.80;;;;;;;-0.20;100.00;101629.72;5119992;27;20027;-73
2021/12/14 03:18:34;;;;;;;42.63;17.08;;;;;;;-0.28;100.00;101632.72;5129352;27;20404;-72
2021/12/14 03:21:00;;;;;;;30.77;14.15;;;;;;;-0.19;100.00;101641.84;5124705;27;20027;-72
2021/12/14 03:23:35;;;;;;;32.95;15.52;;;;;;;-0.20;100.00;101653.19;5122285;27;20035;-73
2021/12/14 03:26:08;;;;;;;40.08;15.98;;;;;;;-0.33;100.00;101638.16;5128636;27;20163;-71
2021/12/14 03:28:34;;;;;;;33.58;18.15;;;;;;;-0.24;100.00;101652.47;5122478;27;20370;-74
2021/12/14 03:31:11;;;;;;;31.73;17.15;;;;;;;-0.24;100.00;101647.28;5122268;27;20019;-73
2021/12/14 03:33:49;;;;;;;25.25;15.75;;;;;;;-0.24;100.00;101660.31;5120779;27;20112;-73
2021/12/14 03:36:23;;;;;;;35.38;15.30;;;;;;;-0.18;100.00;101660.00;5130826;27;20160;-73
2021/12/14 03:39:02;;;;;;;32.28;15.73;;;;;;;-0.19;100.00;101658.31;5131302;27;20023;-73
2021/12/14 03:41:36;;;;;;;31.38;14.73;;;;;;;-0.17;100.00;101656.47;5129211;27;20131;-72
2021/12/14 03:44:13;;;;;;;;;;;;;;;-0.22;100.00;101658.50;5126769;27;20541;-71
2021/12/14 03:46:50;;;;;;;33.88;14.85;;;;;;;-0.26;100.00;101656.94;5130349;27;20374;-73
2021/12/14 03:49:17;;;;;;;26.27;13.43;;;;;;;-0.31;100.00;101657.16;5115357;27;20125;-74
2021/12/14 03:51:44;;;;;;;38.03;15.55;;;;;;;-0.29;100.00;101659.72;5113129;28;20020;-73
2021/12/14 03:54:10;;;;;;;42.53;17.10;;;;;;;-0.28;100.00;101658.78;5120829;27;20103;-73
2021/12/14 03:56:36;;;;;;;32.65;15.82;;;;;;;-0.30;100.00;101658.84;5127060;27;20019;-74
2021/12/14 03:59:03;;;;;;;28.75;15.90;;;;;;;-0.37;100.00;101660.09;5127998;27;20467;-73
2021/12/14 04:01:34;;;;;;;27.98;14.82;;;;;;;-0.30;100.00;101665.81;5118578;27;20103;-72
2021/12/14 04:04:50;;;;;;;31.55;15.07;;;;;;;-0.31;100.00;101674.56;5119871;28;20026;-71
2021/12/14 04:07:16;;;;;;;30.55;15.90;;;;;;;-0.35;100.00;101662.63;5129510;28;20031;-71
2021/12/14 04:09:42;;;;;;;33.72;14.00;;;;;;;-0.35;100.00;101673.91;5123689;27;20019;-72
2021/12/14 04:12:10;;;;;;;20.58;13.18;;;;;;;-0.39;100.00;101674.13;5114545;27;20108;-73
2021/12/14 04:14:41;;;;;;;32.90;15.68;;;;;;;-0.37;100.00;101675.75;5122219;28;20023;-73
2021/12/14 04:17:09;;;;;;;34.72;16.25;;;;;;;-0.42;100.00;101661.25;5119413;28;20027;-71
2021/12/14 04:19:36;;;;;;;34.53;15.68;;;;;;;-0.34;100.00;101688.63;5117298;27;20034;-71
2021/12/14 04:22:09;;;;;;;30.48;15.48;;;;;;;-0.34;100.00;101685.16;5118647;28;20092;-72
2021/12/14 04:24:37;;;;;;;25.42;13.75;;;;;;;-0.39;100.00;101682.78;5116810;27;20035;-73
2021/12/14 04:27:07;;;;;;;33.30;16.65;;;;;;;-0.38;100.00;101681.00;5114761;27;20034;-73
2021/12/14 04:29:33;;;;;;;37.42;15.20;;;;;;;-0.51;100.00;101683.41;5124287;27;20123;-73
2021/12/14 04:31:59;;;;;;;37.95;15.45;;;;;;;-0.37;100.00;101700.94;5126123;27;20015;-71
2021/12/14 04:34:29;;;;;;;35.95;18.67;;;;;;;-0.40;100.00;101698.50;5115396;27;20019;-71
2021/12/14 04:36:55;;;;;;;42.33;17.23;;;;;;;-0.44;100.00;101708.25;5115972;28;20028;-71
2021/12/14 04:53:42;;;;;;;41.88;15.68;;;;;;;-0.39;100.00;101706.25;5123123;27;20042;-75
2021/12/14 04:56:12;;;;;;;35.88;17.05;;;;;;;-0.29;100.00;101720.53;5123511;27;20372;-72
2021/12/14 04:58:52;;;;;;;28.08;15.48;;;;;;;-0.26;100.00;101718.69;5113523;27;20034;-73
2021/12/14 05:01:18;;;;;;;38.63;18.45;;;;;;;-0.31;100.00;101721.50;5120196;27;20078;-74
2021/12/14 05:03:57;;;;;;;41.90;18.27;;;;;;;-0.36;100.00;101728.72;5119870;27;20050;-72
2021/12/14 05:06:32;;;;;;;32.38;16.83;;;;;;;-0.38;100.00;101705.31;5121615;27;20096;-74
2021/12/14 05:09:27;;;;;;;34.22;17.55;;;;;;;-0.29;100.00;101723.13;5122636;27;20367;-72
2021/12/14 05:11:59;;;;;;;34.50;16.73;;;;;;;-0.23;100.00;101718.50;5122237;27;20019;-72
2021/12/14 05:14:28;;;;;;;36.08;16.55;;;;;;;-0.07;100.00;101722.06;5125521;27;20035;-71
2021/12/14 05:16:57;;;;;;;33.95;15.63;;;;;;;-0.15;100.00;101722.44;5127711;27;20487;-71
2021/12/14 05:19:25;;;;;;;32.88;17.38;;;;;;;-0.12;100.00;101714.47;5126278;27;20042;-72
2021/12/14 05:21:51;;;;;;;28.55;15.93;;;;;;;-0.18;100.00;101716.53;5120248;27;20020;-69
2021/12/14 05:24:22;;;;;;;37.75;15.52;;;;;;;-0.03;100.00;101716.59;5121217;27;20328;-70
2021/12/14 05:26:53;;;;;;;32.75;14.02;;;;;;;-0.18;100.00;101716.53;5121206;27;20023;-65
2021/12/14 05:29:23;;;;;;;37.40;17.83;;;;;;;-0.02;100.00;101709.63;5124940;27;20024;-72
2021/12/14 05:31:50;;;;;;;35.83;17.38;;;;;;;-0.05;100.00;101713.25;5121126;27;20031;-70
2021/12/14 05:34:16;;;;;;;37.58;16.10;;;;;;;-0.06;100.00;101711.56;5129285;27;20470;-71
2021/12/14 05:36:44;;;;;;;30.48;17.17;;;;;;;-0.20;100.00;101710.56;5123810;27;20027;-69
2021/12/14 05:44:37;;;;;;;34.10;18.00;;;;;;;-0.16;100.00;101732.94;5119024;27;20027;-71
2021/12/14 05:47:09;;;;;;;36.03;17.50;;;;;;;-0.06;100.00;101726.38;5125787;27;20027;-70
2021/12/14 05:49:37;;;;;;;31.83;16.48;;;;;;;-0.04;100.00;101720.13;5118432;27;20035;-67
2021/12/14 05:52:14;;;;;;;44.92;17.35;;;;;;;-0.11;100.00;101725.75;5126142;27;20102;-71
2021/12/14 05:54:39;;;;;;;34.50;16.17;;;;;;;-0.08;100.00;101728.19;5130276;27;20496;-67
2021/12/14 05:57:07;;;;;;;37.30;17.25;;;;;;;0.07;100.00;101730.00;5130104;27;20031;-68
2021/12/14 05:59:35;;;;;;;45.80;18.42;;;;;;;-0.04;100.00;101741.00;5118389;27;20028;-71
2021/12/14 06:02:05;;;;;;;39.47;18.20;;;;;;;-0.02;100.00;101740.91;5128968;27;20199;-67
2021/12/14 06:04:37;;;;;;;37.92;18.25;;;;;;;-0.04;100.00;101753.19;5123619;27;20053;-73
2021/12/14 06:07:05;;;;;;;35.30;16.73;;;;;;;-0.11;100.00;101747.44;5126699;27;20377;-72
2021/12/14 06:09:36;;;;;;;36.63;19.48;;;;;;;-0.12;100.00;101745.75;5120325;27;20015;-72
2021/12/14 06:12:08;;;;;;;40.83;18.20;;;;;;;-0.24;100.00;101746.34;5124248;27;20015;-73
2021/12/14 06:14:41;;;;;;;38.95;18.95;;;;;;;-0.24;100.00;101735.94;5124504;27;20115;-75
2021/12/14 06:17:06;;;;;;;40.53;18.58;;;;;;;-0.17;100.00;101741.69;5125377;27;20035;-74
2021/12/14 06:19:36;;;;;;;35.33;17.95;;;;;;;-0.29;100.00;101744.00;5121382;27;20043;-75
2021/12/14 06:22:18;;;;;;;38.95;21.00;;;;;;;-0.38;100.00;101740.97;5110771;27;20974;-75
2021/12/14 06:24:50;;;;;;;38.63;17.80;;;;;;;-0.45;100.00;101721.34;5128303;27;20027;-74
2021/12/14 06:27:22;;;;;;;43.00;18.38;;;;;;;-0.32;100.00;101745.88;5128557;27;20381;-74
2021/12/14 06:29:54;;;;;;;40.35;19.52;;;;;;;-0.31;100.00;101745.81;5131704;27;20390;-71
2021/12/14 06:32:27;;;;;;;42.80;19.02;;;;;;;-0.26;100.00;101747.38;5123258;27;20103;-73
2021/12/14 06:35:16;;;;;;;50.28;19.25;;;;;;;-0.26;100.00;101752.56;5125146;27;20074;-73
2021/12/14 06:37:55;;;;;;;37.22;17.92;;;;;;;-0.31;100.00;101750.19;5130294;27;20023;-72
2021/12/14 06:40:30;;;;;;;53.55;19.92;;;;;;;-0.29;100.00;101759.63;5129127;27;20585;-74
2021/12/14 06:42:59;;;;;;;41.47;17.30;;;;;;;-0.15;100.00;101764.16;5128564;27;20051;-73
2021/12/14 06:45:36;;;;;;;32.35;17.42;;;;;;;-0.21;100.00;101764.47;5130328;27;20015;-73
2021/12/14 06:48:11;;;;;;;48.63;17.05;;;;;;;-0.31;100.00;101755.41;5124202;27;20487;-74
2021/12/14 06:51:07;;;;;;;40.67;17.73;;;;;;;-0.20;100.00;101760.94;5132044;27;20019;-76
2021/12/14 06:53:34;;;;;;;41.58;18.38;;;;;;;-0.12;100.00;101764.03;5130908;27;20035;-74
2021/12/14 06:56:02;;;;;;;45.10;20.30;;;;;;;0.02;100.00;101768.56;5121363;27;20027;-73
2021/12/14 06:58:32;;;;;;;38.92;18.83;;;;;;;0.16;100.00;101773.94;5128862;27;20474;-75
2021/12/14 07:01:12;;;;;;;46.38;18.48;;;;;;;0.12;100.00;101771.53;5128709;27;20044;-72
2021/12/14 07:03:59;;;;;;;45.13;18.73;;;;;;;0.16;100.00;101771.31;5130871;27;20407;-74
2021/12/14 07:06:47;;;;;;;40.63;18.00;;;;;;;0.13;100.00;101768.00;5115236;27;21103;-72
2021/12/14 07:09:20;;;;;;;46.47;19.38;;;;;;;0.11;100.00;101782.91;5113262;27;20459;-74
2021/12/14 07:11:59;;;;;;;49.38;20.02;;;;;;;0.15;100.00;101784.44;5125612;27;20036;-72
2021/12/14 07:14:28;;;;;;;44.42;20.13;;;;;;;0.08;100.00;101780.47;5116685;27;20499;-75
2021/12/14 07:17:03;;;;;;;35.50;18.50;;;;;;;0.01;100.00;101785.13;5117247;27;20020;-74
2021/12/14 07:20:01;;;;;;;55.95;23.05;;;;;;;0.07;100.00;101784.81;5122847;27;20027;-76
2021/12/14 07:22:41;;;;;;;39.30;18.55;;;;;;;0.04;100.00;101787.56;5114344;27;20475;-68
2021/12/14 07:25:20;;;;;;;40.03;17.83;;;;;;;0.07;100.00;101790.03;5109726;27;20521;-70
2021/12/14 07:28:06;;;;;;;54.17;19.25;;;;;;;0.17;100.00;101782.59;5113444;27;20027;-70
2021/12/14 07:30:39;;;;;;;39.17;19.23;;;;;;;0.09;100.00;101785.59;5117777;27;20025;-69
2021/12/14 07:33:22;;;;;;;41.58;17.20;;;;;;;0.16;100.00;101783.53;5125247;27;20055;-73
2021/12/14 07:35:50;;;;;;;39.25;17.35;;;;;;;0.20;100.00;101788.50;5123872;27;20095;-75
2021/12/14 07:38:15;;;;;;;33.95;17.65;;;;;;;0.24;100.00;101787.44;5120028;27;20390;-77
2021/12/14 07:40:43;;;;;;;36.40;15.13;;;;;;;0.19;100.00;101781.59;5122610;27;20029;-74
2021/12/14 07:43:19;;;;;;;46.92;18.63;;;;;;;0.24;100.00;101791.81;5123459;27;20027;-78
2021/12/14 07:45:47;;;;;;;39.47;19.48;;;;;;;0.30;100.00;101793.28;5125409;27;20025;-77
2021/12/14 07:48:13;;;;;;;38.80;18.35;;;;;;;0.25;100.00;101783.91;5122274;27;20408;-69
2021/12/14 07:51:05;;;;;;;43.70;20.10;;;;;;;0.30;100.00;101782.84;5117237;27;20031;-73
2021/12/14 07:53:37;;;;;;;39.45;18.23;;;;;;;0.36;100.00;101779.88;5110669;27;20128;-74
2021/12/14 07:56:04;;;;;;;43.60;18.17;;;;;;;0.21;100.00;101766.69;5114810;27;20368;-72
2021/12/14 07:58:33;;;;;;;33.95;16.73;;;;;;;0.40;100.00;101776.22;5122893;27;20088;-76
2021/12/14 08:00:59;;;;;;;44.45;18.55;;;;;;;0.33;100.00;101783.50;5124099;27;20045;-75
2021/12/14 08:03:32;;;;;;;39.85;15.88;;;;;;;0.24;100.00;101771.78;5123129;27;20110;-75
2021/12/14 08:06:02;;;;;;;38.17;17.75;;;;;;;0.35;100.00;101767.75;5116941;27;20054;-77
2021/12/14 08:08:42;;;;;;;34.75;15.95;;;;;;;0.33;100.00;101783.50;5117485;28;20038;-75
2021/12/14 08:11:47;;;;;;;31.65;16.90;;;;;;;0.40;100.00;101768.38;5126819;27;20039;-78
2021/12/14 08:14:31;;;;;;;36.92;16.20;;;;;;;0.46;100.00;101760.22;5132091;27;20027;-75
2021/12/14 08:17:03;;;;;;;32.72;16.95;;;;;;;0.50;100.00;101773.03;5119887;28;20521;-76
2021/12/14 08:19:36;;;;;;;28.70;17.23;;;;;;;0.62;100.00;101782.00;5129213;27;20034;-74
2021/12/14 08:22:11;;;;;;;32.97;17.35;;;;;;;0.62;100.00;101776.78;5137539;27;20484;-76
2021/12/14 08:24:37;;;;;;;;;;;;;;;0.65;100.00;101770.53;5144415;27;20042;-71
2021/12/14 08:27:06;;;;;;;39.72;18.08;;;;;;;0.54;100.00;101758.06;5142291;27;19916;-76
2021/12/14 08:29:35;;;;;;;35.05;16.08;;;;;;;0.54;100.00;101766.75;5137564;27;20019;-74
2021/12/14 08:32:15;;;;;;;36.75;17.13;;;;;;;0.54;100.00;101774.56;5142401;27;20027;-74
2021/12/14 08:34:46;;;;;;;38.67;17.90;;;;;;;0.67;100.00;101766.13;5146495;27;20051;-75
2021/12/14 08:37:27;;;;;;;34.13;15.38;;;;;;;0.42;100.00;101751.72;5125695;27;20019;-74
2021/12/14 08:40:00;;;;;;;39.55;16.60;;;;;;;0.58;100.00;101759.56;5118909;27;20054;-75
2021/12/14 08:42:37;;;;;;;45.95;18.35;;;;;;;0.74;100.00;101759.66;5119364;27;20042;-75
2021/12/14 08:45:25;;;;;;;37.65;19.88;;;;;;;0.71;100.00;101759.78;5122465;27;20036;-76
2021/12/14 08:48:16;;;;;;;39.63;17.35;;;;;;;0.79;100.00;101748.00;5121293;27;20055;-74
2021/12/14 08:50:53;;;;;;;36.65;16.38;;;;;;;0.75;100.00;101743.88;5120949;27;20020;-74
2021/12/14 08:53:19;;;;;;;34.60;17.33;;;;;;;0.83;100.00;101741.69;5124912;27;20030;-80
2021/12/14 08:55:49;;;;;;;33.45;14.73;;;;;;;0.73;100.00;101735.25;5125628;27;20015;-76
2021/12/14 08:58:15;;;;;;;77.93;18.25;;;;;;;0.91;100.00;101738.69;5119873;27;20550;-74
2021/12/14 09:00:49;;;;;;;38.28;16.05;;;;;;;0.72;100.00;101717.91;5125233;27;20031;-75
2021/12/14 09:03:31;;;;;;;33.88;16.58;;;;;;;0.80;100.00;101728.78;5122284;27;20024;-76
2021/12/14 09:05:59;;;;;;;38.50;17.25;;;;;;;0.73;100.00;101719.59;5122137;27;20088;-74
2021/12/14 09:08:24;;;;;;;33.58;16.48;;;;;;;0.69;100.00;101712.88;5127859;27;20023;-78
2021/12/14 09:10:52;;;;;;;34.63;15.55;;;;;;;0.79;100.00;101714.03;5130153;27;20016;-76
2021/12/14 09:13:18;;;;;;;35.97;18.33;;;;;;;0.54;100.00;101711.91;5129881;27;20652;-71
2021/12/14 09:16:06;;;;;;;36.08;17.10;;;;;;;0.87;100.00;101712.78;5123722;27;20064;-70
2021/12/14 09:18:37;;;;;;;43.40;18.13;;;;;;;0.95;100.00;101714.06;5120294;27;20039;-70
2021/12/14 09:21:09;;;;;;;31.35;14.85;;;;;;;0.88;100.00;101675.28;5127981;27;20035;-68
2021/12/14 09:23:44;;;;;;;38.25;17.25;;;;;;;1.31;100.00;101711.19;5127995;27;20054;-69
2021/12/14 09:26:18;;;;;;;34.88;16.48;;;;;;;1.44;100.00;101707.88;5120227;27;20115;-68
2021/12/14 09:28:45;;;;;;;29.17;15.13;;;;;;;1.28;100.00;101693.06;5129534;27;20038;-69
2021/12/14 09:31:14;;;;;;;32.85;16.67;;;;;;;1.47;99.78;101697.22;5130630;27;20023;-70
2021/12/14 09:33:42;;;;;;;31.65;15.77;;;;;;;1.60;98.60;101699.06;5116824;27;20371;-70
2021/12/14 09:36:13;;;;;;;37.20;16.38;;;;;;;1.51;99.18;101690.91;5127673;27;20038;-70
2021/12/14 09:38:46;;;;;;;31.40;16.50;;;;;;;1.22;99.49;101687.34;5124532;27;20034;-68
2021/12/14 09:41:15;;;;;;;37.90;15.95;;;;;;;1.22;99.46;101688.19;5130757;27;20110;-70
2021/12/14 09:43:41;;;;;;;39.80;16.17;;;;;;;1.37;99.21;101697.75;5113835;27;20053;-69
2021/12/14 09:46:08;;;;;;;33.78;15.77;;;;;;;1.46;97.60;101690.31;5118440;27;20099;-71
2021/12/14 09:48:39;;;;;;;32.08;15.95;;;;;;;1.28;97.88;101692.22;5125277;27;20367;-71
2021/12/14 09:51:10;;;;;;;43.40;16.52;;;;;;;1.24;99.08;101694.16;5119751;27;20016;-68
2021/12/14 09:53:43;;;;;;;44.97;15.98;;;;;;;1.30;99.21;101685.13;5121803;27;20027;-69
2021/12/14 09:56:11;;;;;;;26.60;14.75;;;;;;;1.34;98.71;101684.88;5120819;27;20087;-69
2021/12/14 09:58:43;;;;;;;37.13;16.38;;;;;;;1.47;98.41;101692.88;5121612;27;20054;-66
2021/12/14 10:01:26;;;;;;;34.85;16.08;;;;;;;1.56;98.64;101699.34;5118238;27;20136;-71
2021/12/14 10:03:57;;;;;;;55.35;16.88;;;;;;;1.66;97.23;101690.88;5115585;27;20020;-70
2021/12/14 10:06:26;;;;;;;33.85;16.55;;;;;;;1.61;98.41;101676.38;5126821;27;20030;-70
2021/12/14 10:08:59;;;;;;;28.90;15.40;;;;;;;1.58;97.86;101673.94;5120454;27;20024;-69
2021/12/14 10:11:41;;;;;;;34.22;16.92;;;;;;;1.47;98.83;101682.41;5119377;27;20035;-70
2021/12/14 10:14:07;;;;;;;40.35;17.17;;;;;;;1.57;98.09;101690.56;5118648;27;20059;-72
2021/12/14 10:16:33;;;;;;;44.20;16.60;;;;;;;1.74;98.55;101690.44;5121201;27;20378;-71
2021/12/14 10:19:03;;;;;;;42.67;18.63;;;;;;;1.80;98.17;101684.00;5112510;27;20031;-70
2021/12/14 10:21:34;;;;;;;28.90;16.42;;;;;;;1.84;97.63;101682.91;5121279;27;20026;-71
2021/12/14 10:24:04;;;;;;;43.10;17.65;;;;;;;1.81;97.85;101681.28;5117703;27;20142;-70
2021/12/14 10:26:33;;;;;;;46.33;17.92;;;;;;;2.01;97.25;101661.81;5115738;27;20110;-70
2021/12/14 10:29:00;;;;;;;40.17;16.60;;;;;;;1.87;98.13;101653.94;5118259;27;20027;-71
2021/12/14 10:31:39;;;;;;;36.85;19.45;;;;;;;1.90;97.68;101648.50;5114719;27;20016;-70
2021/12/14 10:34:11;;;;;;;35.67;18.15;;;;;;;1.63;97.59;101661.44;5124983;27;20110;-70
2021/12/14 10:36:42;;;;;;;30.55;17.10;;;;;;;1.75;98.23;101662.50;5123447;27;20475;-69
2021/12/14 10:44:37;;;;;;;34.17;17.95;;;;;;;1.74;96.77;101627.66;5113871;27;20046;-70
2021/12/14 10:47:05;;;;;;;35.95;21.20;;;;;;;2.03;96.54;101666.94;5119464;27;20382;-71
2021/12/14 10:49:31;;;;;;;40.45;15.88;;;;;;;1.97;96.97;101659.44;5126530;27;20034;-69
2021/12/14 10:52:02;;;;;;;32.00;17.10;;;;;;;1.98;96.91;101655.91;5119177;27;20043;-69
2021/12/14 10:54:28;;;;;;;27.13;15.02;;;;;;;1.86;97.19;101660.09;5117352;27;20027;-72
2021/12/14 10:57:03;;;;;;;30.35;16.33;;;;;;;1.88;96.86;101656.44;5121562;27;20027;-70
2021/12/14 10:59:34;;;;;;;32.08;15.80;;;;;;;1.93;97.69;101649.19;5121954;27;20032;-71
2021/12/14 11:02:00;;;;;;;33.75;15.05;;;;;;;2.00;97.65;101654.88;5122016;27;20135;-70
2021/12/14 11:05:01;;;;;;;34.40;18.05;;;;;;;1.99;97.40;101660.22;5124013;27;20073;-72
2021/12/14 11:07:37;;;;;;;32.33;15.05;;;;;;;1.78;98.78;101659.72;5114989;27;20096;-68
2021/12/14 11:10:08;;;;;;;32.13;15.32;;;;;;;1.74;98.65;101663.44;5112751;27;20054;-70
2021/12/14 11:12:37;;;;;;;38.97;18.90;;;;;;;1.61;97.64;101617.06;5113676;27;20059;-74
2021/12/14 11:15:35;;;;;;;34.60;16.13;;;;;;;2.02;97.35;101644.31;5111444;27;20031;-74
2021/12/14 11:18:10;;;;;;;32.78;17.60;;;;;;;1.75;98.19;101655.47;5107007;27;20133;-70
2021/12/14 11:20:57;;;;;;;33.45;16.10;;;;;;;1.67;98.87;101653.31;5115320;27;20067;-69
2021/12/14 11:23:27;;;;;;;32.60;16.25;;;;;;;1.17;98.05;101563.91;5120040;27;20031;-69
2021/12/14 11:26:14;;;;;;;33.83;15.32;;;;;;;1.67;98.27;101642.00;5116389;27;20212;-70
2021/12/14 11:29:09;;;;;;;33.60;16.90;;;;;;;1.65;98.20;101641.28;5118032;27;20402;-71
2021/12/14 11:31:43;;;;;;;31.88;15.68;;;;;;;1.72;98.33;101634.75;5118519;27;20040;-71
2021/12/14 11:34:27;;;;;;;26.80;15.27;;;;;;;1.85;97.16;101642.72;5117182;27;20094;-72
2021/12/14 11:36:56;;;;;;;31.83;15.82;;;;;;;2.14;96.21;101639.19;5128479;27;20484;-70
2021/12/14 11:39:28;;;;;;;36.28;17.10;;;;;;;2.18;95.97;101638.06;5115584;27;20064;-69
2021/12/14 11:42:05;;;;;;;27.80;15.02;;;;;;;2.26;95.18;101618.41;5116457;27;20118;-69
2021/12/14 11:44:47;;;;;;;36.05;18.17;;;;;;;2.38;94.15;101639.47;5106051;27;20041;-71
2021/12/14 11:50:33;;;;;;;35.13;15.63;;;;;;;2.18;95.31;101642.47;5124634;27;20027;-70
2021/12/14 11:53:13;;;;;;;43.03;19.13;;;;;;;2.07;96.74;101658.81;5116006;27;20023;-71
2021/12/14 11:55:49;;;;;;;31.33;14.07;;;;;;;1.87;96.75;101649.53;5115721;27;20044;-68
2021/12/14 11:58:33;;;;;;;33.63;15.82;;;;;;;1.77;97.65;101648.41;5110888;27;20046;-71
2021/12/14 12:01:20;;;;;;;37.28;15.82;;;;;;;1.61;98.73;101644.97;5119817;27;20046;-70
2021/12/14 12:04:00;;;;;;;49.53;18.90;;;;;;;1.31;100.00;101635.38;5117381;28;20042;-69
2021/12/14 12:09:33;;;;;;;36.25;18.20;;;;;;;1.50;100.00;101642.16;5118652;27;20054;-69
2021/12/14 12:12:07;;;;;;;43.65;17.95;;;;;;;1.39;100.00;101634.94;5125345;27;20114;-70